Time;durP1;ratioP1;P1;durP2;ratioP2;P2;SDS_P1;SDS_P2;PMS_P1;PMS_P2;Temp;Humidity;BMP_temperature;BMP_pressure;BME280_temperature;BME280_humidity;BME280_pressure;Samples;Min_cycle;Max_cycle;Signal;HPM_P1;HPM_P2
2022/08/10 00:01:25;;;;;;;2.47;1.60;;;;;;;19.76;55.62;101928.81;5031299;28;20211;-80
2022/08/10 00:03:52;;;;;;;1.43;1.33;;;;;;;19.76;55.13;101926.16;5033310;28;20219;-81
2022/08/10 00:06:18;;;;;;;1.57;1.47;;;;;;;19.77;55.62;101927.91;5034039;28;20191;-81
2022/08/10 00:08:46;;;;;;;1.37;1.20;;;;;;;19.73;55.60;101927.13;5031201;28;20676;-80
2022/08/10 00:11:12;;;;;;;1.83;1.60;;;;;;;19.72;55.86;101925.41;5030118;28;20206;-80
2022/08/10 00:13:39;;;;;;;2.30;1.60;;;;;;;19.66;56.30;101909.66;5029304;28;20297;-81
2022/08/10 00:16:06;;;;;;;1.50;1.40;;;;;;;19.58;55.97;101909.06;5029221;28;20215;-79
2022/08/10 00:18:32;;;;;;;1.60;1.50;;;;;;;19.58;56.35;101911.69;5028970;28;20227;-80
2022/08/10 00:20:59;;;;;;;2.67;1.50;;;;;;;19.51;56.58;101911.06;5028742;28;20238;-81
2022/08/10 00:23:25;;;;;;;3.03;1.70;;;;;;;19.42;57.17;101898.09;5029203;28;20572;-78
2022/08/10 00:25:53;;;;;;;1.87;1.53;;;;;;;19.37;57.45;101876.22;5027253;28;20203;-78
2022/08/10 00:28:20;;;;;;;1.80;1.63;;;;;;;19.35;57.72;101876.25;5027986;28;20202;-79
2022/08/10 00:30:46;;;;;;;1.83;1.50;;;;;;;19.32;57.75;101867.53;5027891;28;20268;-80
2022/08/10 00:33:12;;;;;;;2.00;1.80;;;;;;;19.32;57.95;101867.53;5026372;28;20227;-80
2022/08/10 00:35:39;;;;;;;2.57;1.50;;;;;;;19.30;57.93;101864.09;5027727;28;20241;-81
2022/08/10 00:38:05;;;;;;;3.13;1.87;;;;;;;19.25;58.02;101865.09;5028241;28;20214;-79
2022/08/10 00:40:32;;;;;;;1.33;1.23;;;;;;;19.27;58.51;101859.75;5028157;28;20238;-79
2022/08/10 00:43:00;;;;;;;2.97;1.50;;;;;;;19.19;58.56;101862.66;5028620;28;20269;-80
2022/08/10 00:45:26;;;;;;;4.10;1.83;;;;;;;19.14;58.75;101850.47;5028740;28;20207;-79
2022/08/10 00:47:53;;;;;;;3.27;1.80;;;;;;;19.04;59.09;101834.03;5029794;28;20264;-79
2022/08/10 00:50:20;;;;;;;2.40;1.80;;;;;;;19.03;58.98;101838.47;5028466;28;20218;-80
2022/08/10 00:52:47;;;;;;;1.90;1.73;;;;;;;19.04;59.18;101834.88;5027456;28;20218;-78
2022/08/10 00:55:14;;;;;;;1.63;1.53;;;;;;;19.01;59.34;101829.69;5028136;28;20238;-79
2022/08/10 00:57:41;;;;;;;1.80;1.70;;;;;;;19.02;59.21;101834.06;5027482;28;20202;-81
2022/08/10 01:00:10;;;;;;;3.47;1.73;;;;;;;18.99;59.21;101833.31;5027231;28;20231;-79
2022/08/10 01:02:36;;;;;;;2.30;1.63;;;;;;;18.95;59.47;101829.91;5028014;28;20236;-80
2022/08/10 01:05:06;;;;;;;1.63;1.53;;;;;;;18.92;59.33;101822.03;5027060;28;20271;-79
2022/08/10 01:08:02;;;;;;;3.87;2.07;;;;;;;18.87;59.24;101824.00;5027802;28;20222;-79
2022/08/10 01:10:38;;;;;;;2.73;1.87;;;;;;;18.90;59.71;101812.44;5028195;28;20207;-81
2022/08/10 01:13:09;;;;;;;1.93;1.70;;;;;;;18.89;59.78;101808.03;5027141;28;20275;-77
2022/08/10 01:15:46;;;;;;;2.30;2.00;;;;;;;18.80;59.94;101807.41;5027299;28;20211;-79
2022/08/10 01:18:18;;;;;;;2.43;1.80;;;;;;;18.75;60.39;101796.09;5027636;28;20233;-78
2022/08/10 01:20:57;;;;;;;1.63;1.53;;;;;;;18.75;60.21;101790.81;5026864;28;20245;-80
2022/08/10 01:23:47;;;;;;;2.93;1.80;;;;;;;18.68;60.99;101783.97;5026501;28;20241;-80
2022/08/10 01:26:48;;;;;;;1.93;1.50;;;;;;;18.62;60.86;101785.03;5025828;28;20630;-79
2022/08/10 01:29:42;;;;;;;2.40;2.00;;;;;;;18.56;61.11;101789.66;5025703;28;20498;-80
2022/08/10 01:32:13;;;;;;;3.10;2.47;;;;;;;18.52;61.77;101758.91;5026512;28;20231;-80
2022/08/10 01:34:48;;;;;;;3.40;2.47;;;;;;;18.55;60.97;101772.91;5026198;28;20204;-80
2022/08/10 01:37:20;;;;;;;4.17;2.43;;;;;;;18.55;61.65;101761.44;5025597;28;20213;-80
2022/08/10 01:39:51;;;;;;;2.07;1.63;;;;;;;18.50;61.72;101752.81;5026014;28;20231;-79
2022/08/10 01:42:21;;;;;;;2.00;1.90;;;;;;;18.39;62.17;101748.72;5026878;28;20223;-78
2022/08/10 01:44:53;;;;;;;1.60;1.50;;;;;;;18.38;62.46;101733.75;5026583;28;20245;-80
2022/08/10 01:50:13;;;;;;;2.10;1.90;;;;;;;18.13;63.59;101701.06;5026960;28;20571;-79
2022/08/10 01:52:42;;;;;;;2.07;1.80;;;;;;;18.11;63.84;101698.47;5021435;28;20230;-80
2022/08/10 01:55:11;;;;;;;2.60;2.03;;;;;;;18.10;63.86;101695.88;5017762;28;20574;-80
2022/08/10 01:57:40;;;;;;;2.23;1.93;;;;;;;18.10;63.98;101688.81;5017890;28;20206;-80
2022/08/10 02:00:11;;;;;;;1.97;1.80;;;;;;;18.12;63.91;101691.41;5017656;28;20281;-80
2022/08/10 02:02:40;;;;;;;2.17;2.00;;;;;;;18.03;64.29;101695.19;5017961;28;20245;-80
2022/08/10 02:05:08;;;;;;;1.97;1.80;;;;;;;17.99;64.52;101686.47;5017249;28;20599;-80
2022/08/10 02:07:37;;;;;;;2.53;1.97;;;;;;;17.95;64.64;101681.34;5018295;28;20229;-80
2022/08/10 02:10:08;;;;;;;2.50;1.73;;;;;;;17.97;64.54;101687.44;5018420;28;20206;-80
2022/08/10 02:12:36;;;;;;;2.40;2.13;;;;;;;17.98;64.38;101694.47;5019812;28;20712;-79
2022/08/10 02:15:08;;;;;;;2.00;1.87;;;;;;;17.86;64.99;101693.91;5025859;28;20206;-80
2022/08/10 02:17:38;;;;;;;2.10;1.80;;;;;;;17.92;64.58;101695.53;5018908;28;20190;-78
2022/08/10 02:20:08;;;;;;;3.97;2.07;;;;;;;17.94;64.86;101698.09;5018988;28;20234;-79
2022/08/10 02:22:37;;;;;;;2.33;2.13;;;;;;;17.90;65.33;101696.44;5028421;28;20231;-81
2022/08/10 02:25:06;;;;;;;2.67;1.97;;;;;;;17.86;65.61;101685.13;5025941;28;20202;-80
2022/08/10 02:27:33;;;;;;;1.80;1.70;;;;;;;17.81;65.64;101690.50;5026371;28;20315;-80
2022/08/10 02:30:02;;;;;;;2.10;2.00;;;;;;;17.76;65.75;101681.84;5026602;28;20229;-80
2022/08/10 02:32:31;;;;;;;2.17;2.07;;;;;;;17.67;66.07;101677.69;5025813;28;20253;-79
2022/08/10 02:35:02;;;;;;;2.40;2.20;;;;;;;17.63;66.27;101669.91;5026106;28;20206;-78
2022/08/10 02:37:30;;;;;;;2.37;1.80;;;;;;;17.54;66.78;101660.50;5026199;28;20211;-77
2022/08/10 02:39:57;;;;;;;2.40;2.20;;;;;;;17.49;67.22;101651.81;5027406;28;20261;-80
2022/08/10 02:42:25;;;;;;;2.00;1.90;;;;;;;17.58;66.50;101653.31;5027125;28;20669;-79
2022/08/10 02:45:03;;;;;;;2.07;1.97;;;;;;;17.49;67.00;101654.47;5027275;28;20311;-79
2022/08/10 02:47:35;;;;;;;2.57;2.20;;;;;;;17.46;67.57;101641.34;5020025;28;20191;-80
2022/08/10 02:50:10;;;;;;;2.53;2.33;;;;;;;17.44;67.46;101645.78;5025323;28;20283;-78
2022/08/10 02:52:42;;;;;;;2.30;2.07;;;;;;;17.46;67.38;101651.91;5026810;28;20257;-79
2022/08/10 02:55:16;;;;;;;3.00;2.63;;;;;;;17.31;67.62;101650.56;5026292;28;20211;-79
2022/08/10 02:57:48;;;;;;;3.70;2.30;;;;;;;17.34;67.65;101647.81;5027049;28;20230;-79
2022/08/10 03:00:15;;;;;;;2.57;2.00;;;;;;;17.36;67.73;101650.44;5027312;28;20298;-79
2022/08/10 03:02:45;;;;;;;2.37;2.17;;;;;;;17.37;67.54;101653.03;5028758;28;20235;-78
2022/08/10 03:05:14;;;;;;;2.27;2.07;;;;;;;17.36;67.83;101666.25;5028652;28;20238;-79
2022/08/10 03:07:47;;;;;;;2.30;1.80;;;;;;;17.39;67.67;101661.78;5028260;28;20199;-79
2022/08/10 03:10:17;;;;;;;2.30;2.20;;;;;;;17.36;67.44;101661.88;5023269;28;20214;-81
2022/08/10 03:12:47;;;;;;;2.40;2.00;;;;;;;17.26;68.04;101663.00;5018080;28;20240;-81
2022/08/10 03:15:15;;;;;;;3.00;2.23;;;;;;;17.24;68.43;101651.63;5018799;28;20214;-81
2022/08/10 03:17:43;;;;;;;3.27;2.47;;;;;;;17.15;68.31;101652.75;5018470;28;20256;-79
2022/08/10 03:20:11;;;;;;;3.50;2.30;;;;;;;17.12;68.74;101649.31;5016469;28;20627;-80
2022/08/10 03:22:40;;;;;;;2.10;2.00;;;;;;;17.16;68.30;101656.25;5016521;28;20231;-80
2022/08/10 03:25:10;;;;;;;3.03;2.83;;;;;;;17.24;67.77;101667.47;5016342;28;20210;-80
2022/08/10 03:27:37;;;;;;;2.67;2.47;;;;;;;17.23;67.78;101678.94;5016243;28;20676;-80
2022/08/10 03:30:05;;;;;;;2.80;2.60;;;;;;;17.31;67.36;101686.66;5017228;28;20209;-80
2022/08/10 03:32:33;;;;;;;2.50;2.30;;;;;;;17.15;68.29;101673.00;5017367;28;20223;-81
2022/08/10 03:35:00;;;;;;;2.53;2.33;;;;;;;17.02;68.65;101654.84;5016460;28;20617;-80
2022/08/10 03:37:27;;;;;;;2.50;2.23;;;;;;;16.96;69.07;101636.53;5023881;28;20218;-81
2022/08/10 03:39:55;;;;;;;3.77;2.57;;;;;;;16.95;69.18;101631.31;5023880;28;20254;-79
2022/08/10 03:42:23;;;;;;;3.17;2.87;;;;;;;16.88;69.69;101617.41;5024028;28;20223;-78
2022/08/10 03:44:52;;;;;;;2.67;2.47;;;;;;;16.90;69.71;101612.09;5023670;28;20707;-78
2022/08/10 03:47:20;;;;;;;3.80;2.30;;;;;;;16.85;69.73;101615.72;5024320;28;20207;-79
2022/08/10 03:49:49;;;;;;;2.50;2.30;;;;;;;16.78;70.13;101608.84;5024236;28;20234;-78
2022/08/10 03:52:17;;;;;;;6.87;2.87;;;;;;;16.70;70.52;101602.03;5025474;28;20235;-79
2022/08/10 03:54:44;;;;;;;2.50;2.17;;;;;;;16.67;70.59;101601.22;5026178;28;20622;-79
2022/08/10 03:57:12;;;;;;;3.03;2.40;;;;;;;16.60;71.30;101588.22;5025364;28;20280;-79
2022/08/10 03:59:39;;;;;;;3.50;2.80;;;;;;;16.57;71.55;101573.38;5017954;28;20230;-80
2022/08/10 04:02:06;;;;;;;2.60;2.40;;;;;;;16.57;71.48;101560.19;5020247;28;20227;-80
2022/08/10 04:04:33;;;;;;;2.80;2.60;;;;;;;16.51;71.87;101559.47;5021567;28;20209;-80
2022/08/10 04:07:00;;;;;;;2.57;2.37;;;;;;;16.47;72.34;101548.13;5020573;28;20211;-80
2022/08/10 04:09:29;;;;;;;2.57;2.37;;;;;;;16.47;72.31;101543.75;5020483;28;20210;-80
2022/08/10 04:11:55;;;;;;;3.50;2.43;;;;;;;16.42;72.61;101544.75;5020127;28;20250;-81
2022/08/10 04:14:23;;;;;;;2.70;2.50;;;;;;;16.52;72.62;101548.03;5020646;28;20206;-81
2022/08/10 04:16:50;;;;;;;3.13;2.73;;;;;;;16.54;72.36;101544.44;5019927;28;20680;-80
2022/08/10 04:19:18;;;;;;;3.40;2.53;;;;;;;16.48;72.58;101549.88;5018831;28;20253;-80
2022/08/10 04:21:49;;;;;;;3.27;2.93;;;;;;;16.57;71.79;101564.56;5020107;28;20230;-81
2022/08/10 04:24:21;;;;;;;3.00;2.70;;;;;;;16.71;71.23;101582.66;5020773;28;20621;-80
2022/08/10 04:26:48;;;;;;;2.80;2.60;;;;;;;16.78;70.79;101608.84;5020546;28;20632;-81
2022/08/10 04:29:14;;;;;;;3.10;2.40;;;;;;;16.83;70.75;101622.81;5025579;28;20236;-80
2022/08/10 04:31:44;;;;;;;2.47;2.27;;;;;;;16.84;70.77;101626.31;5030683;28;20272;-81
2022/08/10 04:34:14;;;;;;;3.23;2.50;;;;;;;16.82;70.88;101620.22;5030470;28;20234;-80
2022/08/10 04:36:41;;;;;;;3.17;2.53;;;;;;;16.88;70.59;101634.09;5030448;28;20217;-81
2022/08/10 04:39:09;;;;;;;2.60;2.40;;;;;;;16.96;70.32;101648.88;5031089;28;20214;-79
2022/08/10 04:41:36;;;;;;;4.40;2.60;;;;;;;17.03;70.12;101656.59;5032497;28;20207;-80
2022/08/10 04:44:02;;;;;;;2.83;2.50;;;;;;;17.04;70.18;101663.56;5030123;28;20260;-79
2022/08/10 04:46:29;;;;;;;4.87;2.30;;;;;;;17.02;70.13;101672.44;5029805;28;20207;-79
2022/08/10 04:48:57;;;;;;;2.43;2.23;;;;;;;17.00;70.41;101672.47;5029253;28;20214;-79
2022/08/10 04:51:23;;;;;;;2.90;2.60;;;;;;;17.05;70.11;101678.50;5030375;28;20203;-79
2022/08/10 04:53:51;;;;;;;2.57;2.37;;;;;;;17.07;70.08;101687.25;5029530;28;20250;-79
2022/08/10 04:56:18;;;;;;;5.83;2.87;;;;;;;17.14;70.38;101676.53;5029563;28;20203;-78
2022/08/10 04:58:44;;;;;;;2.40;2.30;;;;;;;17.18;69.84;101694.00;5029998;28;20206;-80
2022/08/10 05:01:11;;;;;;;2.77;2.57;;;;;;;17.21;69.68;101696.59;5029049;28;20700;-79
2022/08/10 05:03:37;;;;;;;3.10;2.60;;;;;;;17.17;70.12;101698.44;5029531;28;20763;-78
2022/08/10 05:06:06;;;;;;;2.53;2.33;;;;;;;17.18;69.75;101696.66;5029288;28;20261;-78
2022/08/10 05:08:32;;;;;;;2.07;1.97;;;;;;;17.22;69.57;101708.84;5029036;28;20652;-80
2022/08/10 05:10:59;;;;;;;3.67;2.70;;;;;;;17.33;71.67;101661.94;5029236;28;20232;-79
2022/08/10 05:13:25;;;;;;;2.93;2.73;;;;;;;17.35;69.81;101686.53;5028535;28;20273;-80
2022/08/10 05:15:52;;;;;;;2.13;2.03;;;;;;;17.38;69.10;101718.13;5028834;28;20202;-79
2022/08/10 05:18:19;;;;;;;2.40;2.20;;;;;;;17.44;69.49;101727.63;5028281;28;20206;-78
2022/08/10 05:20:45;;;;;;;2.50;2.30;;;;;;;17.42;69.33;101735.63;5029061;28;20666;-78
2022/08/10 05:23:13;;;;;;;2.73;2.53;;;;;;;17.35;69.67;101739.31;5028565;28;20226;-78
2022/08/10 05:25:39;;;;;;;3.30;3.07;;;;;;;17.32;70.26;101720.03;5029405;28;20207;-78
2022/08/10 05:28:06;;;;;;;3.67;2.90;;;;;;;17.32;70.00;101715.63;5029325;28;20610;-79
2022/08/10 05:30:33;;;;;;;3.40;3.10;;;;;;;17.33;70.12;101727.06;5029236;28;20207;-80
2022/08/10 05:32:59;;;;;;;3.27;2.87;;;;;;;17.34;70.26;101700.59;5029405;28;20238;-81
2022/08/10 05:35:27;;;;;;;3.80;3.43;;;;;;;17.39;71.13;101696.09;5028864;28;20207;-78
2022/08/10 05:37:55;;;;;;;5.10;4.07;;;;;;;17.35;70.35;101702.34;5028375;28;20207;-78
2022/08/10 05:40:24;;;;;;;3.60;3.30;;;;;;;17.31;69.93;101713.03;5028960;28;20239;-78
2022/08/10 05:42:50;;;;;;;4.20;3.80;;;;;;;17.29;70.17;101720.13;5029132;28;20518;-81
2022/08/10 05:45:21;;;;;;;4.23;3.83;;;;;;;17.32;69.90;101723.53;5029777;28;20258;-80
2022/08/10 05:47:47;;;;;;;3.93;3.57;;;;;;;17.38;70.50;101699.66;5029153;28;20207;-77
2022/08/10 05:50:15;;;;;;;3.90;3.60;;;;;;;17.38;70.29;101711.94;5028756;28;20211;-80
2022/08/10 05:52:42;;;;;;;5.37;4.27;;;;;;;17.45;70.55;101705.63;5028573;28;20234;-80
2022/08/10 05:55:09;;;;;;;6.13;4.03;;;;;;;17.45;69.49;101729.38;5028538;28;20735;-79
2022/08/10 05:57:37;;;;;;;4.90;3.60;;;;;;;17.51;69.18;101744.19;5029175;28;20234;-78
2022/08/10 06:00:07;;;;;;;4.50;3.80;;;;;;;17.55;69.20;101751.97;5029504;28;20235;-80
2022/08/10 06:02:37;;;;;;;4.50;4.07;;;;;;;17.62;69.01;101753.56;5028683;28;20256;-81
2022/08/10 06:05:07;;;;;;;4.43;3.97;;;;;;;17.66;69.31;101752.56;5030275;28;20219;-79
2022/08/10 06:07:36;;;;;;;5.97;4.33;;;;;;;17.70;68.74;101770.94;5030113;28;20235;-78
2022/08/10 06:10:05;;;;;;;4.93;4.00;;;;;;;17.75;68.61;101777.84;5029741;28;20195;-79
2022/08/10 06:12:36;;;;;;;7.13;4.20;;;;;;;17.82;68.35;101778.56;5027740;28;20223;-78
2022/08/10 06:15:05;;;;;;;5.67;3.77;;;;;;;17.85;68.17;101789.06;5026775;28;20206;-80
2022/08/10 06:17:32;;;;;;;4.43;3.97;;;;;;;17.89;68.62;101787.19;5027042;28;20210;-80
2022/08/10 06:19:59;;;;;;;7.13;4.17;;;;;;;17.90;68.76;101770.41;5027000;28;20226;-78
2022/08/10 06:22:27;;;;;;;6.40;4.03;;;;;;;17.93;68.13;101787.06;5026319;28;20288;-79
2022/08/10 06:24:56;;;;;;;5.80;4.03;;;;;;;18.00;68.70;101787.78;5025758;28;20232;-78
2022/08/10 06:27:23;;;;;;;9.37;4.47;;;;;;;18.05;68.96;101777.91;5027547;28;20677;-78
2022/08/10 06:29:52;;;;;;;7.60;4.50;;;;;;;18.10;69.32;101773.38;5026855;28;20203;-80
2022/08/10 06:32:24;;;;;;;11.17;4.07;;;;;;;18.15;68.91;101784.66;5026694;28;20227;-78
2022/08/10 06:34:54;;;;;;;12.80;5.10;;;;;;;18.21;68.67;101773.91;5026743;28;20273;-79
2022/08/10 06:37:26;;;;;;;7.47;4.37;;;;;;;18.26;67.84;101805.50;5026866;28;20199;-79
2022/08/10 06:39:53;;;;;;;8.27;4.27;;;;;;;18.32;67.60;101823.84;5027117;28;20215;-78
2022/08/10 06:42:22;;;;;;;7.63;3.90;;;;;;;18.36;67.14;101854.56;5026415;28;20806;-79
2022/08/10 06:44:55;;;;;;;6.63;4.00;;;;;;;18.38;66.72;101860.66;5007648;28;20325;-79
2022/08/10 06:47:28;;;;;;;8.80;4.30;;;;;;;18.41;66.94;101860.59;5007571;28;20775;-80
2022/08/10 06:49:59;;;;;;;5.97;4.30;;;;;;;18.47;66.49;101870.09;5006716;28;20211;-79
2022/08/10 06:52:28;;;;;;;6.93;4.10;;;;;;;18.53;66.38;101869.06;5006370;28;20257;-79
2022/08/10 06:54:57;;;;;;;10.60;3.90;;;;;;;18.57;65.88;101889.22;5006803;28;20231;-81
2022/08/10 06:57:26;;;;;;;10.83;4.80;;;;;;;18.68;66.65;101883.63;5007625;28;20590;-80
2022/08/10 06:59:56;;;;;;;7.03;3.93;;;;;;;18.76;65.09;101910.72;5007812;28;20226;-78
2022/08/10 07:02:29;;;;;;;3.83;3.10;;;;;;;18.80;63.35;101965.31;5007153;28;20285;-80
2022/08/10 07:05:00;;;;;;;6.33;3.07;;;;;;;18.88;63.75;101973.88;5006946;28;20207;-79
2022/08/10 07:07:29;;;;;;;2.83;2.33;;;;;;;18.95;62.69;102006.31;5007444;28;20212;-78
2022/08/10 07:09:58;;;;;;;5.73;2.70;;;;;;;19.00;62.33;102020.28;5009931;28;20272;-79
2022/08/10 07:12:26;;;;;;;8.00;2.60;;;;;;;19.01;61.97;102032.63;5026473;28;20231;-79
2022/08/10 07:14:55;;;;;;;5.33;2.90;;;;;;;19.08;62.61;102028.00;5027317;28;20206;-79
2022/08/10 07:17:26;;;;;;;5.10;2.70;;;;;;;19.16;62.38;102026.00;5027195;28;20210;-79
2022/08/10 07:19:56;;;;;;;4.43;3.50;;;;;;;19.21;61.37;102045.28;5027347;28;20211;-79
2022/08/10 07:22:25;;;;;;;3.17;2.30;;;;;;;19.29;61.07;102053.00;5027009;28;20276;-79
2022/08/10 07:24:54;;;;;;;4.03;2.50;;;;;;;19.37;60.39;102067.75;5027104;28;20202;-81
2022/08/10 07:27:23;;;;;;;3.00;2.70;;;;;;;19.45;59.95;102094.84;5026950;28;20211;-79
2022/08/10 07:29:50;;;;;;;3.23;2.70;;;;;;;19.50;60.42;102100.00;5026669;28;20211;-80
2022/08/10 07:32:19;;;;;;;2.70;2.50;;;;;;;19.57;60.33;102093.63;5027207;28;20871;-80
2022/08/10 07:34:48;;;;;;;3.27;2.27;;;;;;;19.64;60.08;102096.94;5026751;28;20207;-79
2022/08/10 07:37:15;;;;;;;2.83;2.27;;;;;;;19.65;60.11;102090.75;5029148;28;20213;-81
2022/08/10 07:39:47;;;;;;;2.87;2.47;;;;;;;19.72;60.37;102081.75;5030422;28;20735;-79
2022/08/10 07:42:17;;;;;;;4.73;2.60;;;;;;;19.79;59.76;102085.91;5030872;28;20249;-79
2022/08/10 07:44:46;;;;;;;4.57;2.70;;;;;;;19.85;59.68;102098.09;5031413;28;20579;-78
2022/08/10 07:47:17;;;;;;;3.97;2.67;;;;;;;19.87;59.23;102106.03;5031413;28;20242;-79
2022/08/10 07:49:47;;;;;;;5.53;3.13;;;;;;;19.89;59.93;102107.69;5030742;28;20260;-80
2022/08/10 07:52:14;;;;;;;7.60;2.93;;;;;;;19.95;59.93;102088.09;5029750;28;20755;-81
2022/08/10 07:54:43;;;;;;;4.00;2.83;;;;;;;19.96;60.56;102072.16;5030637;28;20677;-79
2022/08/10 07:57:17;;;;;;;4.00;2.20;;;;;;;19.97;60.24;102073.88;5031231;28;20226;-80
2022/08/10 07:59:48;;;;;;;2.87;2.60;;;;;;;20.02;60.36;102063.13;5030980;28;20210;-79
2022/08/10 08:02:20;;;;;;;3.67;2.50;;;;;;;20.11;60.09;102060.16;5031245;28;20299;-79
2022/08/10 08:04:48;;;;;;;2.77;2.57;;;;;;;20.16;59.85;102078.59;5030926;28;20215;-79
2022/08/10 08:07:16;;;;;;;2.40;2.27;;;;;;;20.28;58.30;102109.09;5030803;28;20238;-81
2022/08/10 08:09:44;;;;;;;2.80;1.97;;;;;;;20.29;58.63;102127.63;5030745;28;20234;-81
2022/08/10 08:12:12;;;;;;;2.37;2.17;;;;;;;20.35;58.72;102113.31;5031175;28;20218;-81
2022/08/10 08:14:42;;;;;;;4.13;2.90;;;;;;;20.49;58.51;102126.97;5031034;28;20203;-81
2022/08/10 08:17:09;;;;;;;4.63;2.40;;;;;;;20.56;57.67;102130.31;5030021;28;20210;-80
2022/08/10 08:19:36;;;;;;;2.70;2.50;;;;;;;20.63;57.46;102153.97;5031733;28;20238;-81
2022/08/10 08:22:06;;;;;;;2.87;2.30;;;;;;;20.69;57.28;102176.75;5030783;28;20226;-79
2022/08/10 08:24:35;;;;;;;4.17;2.43;;;;;;;20.72;57.28;102155.44;5031706;28;20234;-81
2022/08/10 08:27:03;;;;;;;3.20;2.40;;;;;;;20.81;57.64;102143.63;5031253;28;20242;-81
2022/08/10 08:29:33;;;;;;;2.77;2.20;;;;;;;20.87;57.30;102148.75;5030296;28;20631;-79
2022/08/10 08:32:00;;;;;;;3.03;2.80;;;;;;;20.97;57.60;102138.63;5031266;28;20214;-80
2022/08/10 08:34:27;;;;;;;2.40;2.10;;;;;;;21.05;57.36;102135.72;5031455;28;20206;-81
2022/08/10 08:36:54;;;;;;;3.03;2.60;;;;;;;21.15;57.03;102155.69;5036103;28;20234;-80
2022/08/10 08:39:22;;;;;;;4.00;2.80;;;;;;;21.24;56.68;102155.38;5032403;28;20265;-79
2022/08/10 08:42:02;;;;;;;2.97;2.60;;;;;;;21.31;56.13;102156.91;5030208;28;20222;-81
2022/08/10 08:44:39;;;;;;;3.00;2.63;;;;;;;21.35;55.94;102179.78;5031069;28;20203;-79
2022/08/10 08:47:24;;;;;;;3.10;2.50;;;;;;;21.42;56.38;102175.09;5030349;28;20233;-81
2022/08/10 08:50:05;;;;;;;3.10;2.80;;;;;;;21.49;55.90;102173.97;5031093;28;20203;-83
2022/08/10 08:52:55;;;;;;;2.50;2.30;;;;;;;21.56;55.69;102180.78;5030934;28;20241;-78
2022/08/10 08:55:43;;;;;;;4.30;2.50;;;;;;;21.65;55.23;102200.84;5031706;28;20239;-81
2022/08/10 08:58:26;;;;;;;2.53;2.33;;;;;;;21.75;54.94;102204.91;5031214;28;20207;-80
2022/08/10 09:01:05;;;;;;;3.47;2.47;;;;;;;21.80;54.47;102221.56;5031562;28;20253;-81
2022/08/10 09:04:06;;;;;;;2.97;2.70;;;;;;;21.91;54.36;102233.56;5032110;28;20226;-81
2022/08/10 09:06:50;;;;;;;4.17;2.80;;;;;;;21.99;54.32;102229.69;5032054;28;20210;-80
2022/08/10 09:09:48;;;;;;;2.83;2.47;;;;;;;22.04;54.41;102231.28;5034863;28;20233;-80
2022/08/10 09:12:33;;;;;;;5.17;2.80;;;;;;;22.18;54.65;102219.22;5014378;28;20215;-81
2022/08/10 09:15:05;;;;;;;2.97;2.40;;;;;;;22.33;53.97;102236.38;5017400;28;20199;-81
2022/08/10 09:17:42;;;;;;;2.83;2.53;;;;;;;22.45;53.56;102218.19;5018369;28;20616;-81
2022/08/10 09:20:10;;;;;;;2.77;2.57;;;;;;;22.52;52.31;102275.59;5019262;28;20621;-81
2022/08/10 09:22:44;;;;;;;3.30;3.00;;;;;;;22.60;51.55;102297.44;5017311;28;20223;-80
2022/08/10 09:25:16;;;;;;;2.83;2.60;;;;;;;22.68;51.73;102307.78;5018049;28;20241;-81
2022/08/10 09:27:46;;;;;;;3.20;2.90;;;;;;;22.76;51.50;102305.69;5017289;28;20261;-81
2022/08/10 09:30:16;;;;;;;2.93;2.20;;;;;;;22.81;50.12;102324.97;5016941;28;20192;-80
2022/08/10 09:32:46;;;;;;;2.30;2.13;;;;;;;22.91;49.15;102360.09;5017256;28;20222;-80
2022/08/10 09:35:18;;;;;;;2.90;2.37;;;;;;;22.96;49.42;102382.97;5018068;28;20203;-82
2022/08/10 09:37:52;;;;;;;2.40;2.00;;;;;;;23.03;49.23;102372.94;5017104;28;20234;-78
2022/08/10 09:40:25;;;;;;;2.77;2.53;;;;;;;23.15;48.66;102398.22;5020225;28;20211;-79
2022/08/10 09:43:03;;;;;;;3.60;2.10;;;;;;;23.23;47.89;102414.78;5020192;28;20689;-80
2022/08/10 09:45:42;;;;;;;3.77;1.80;;;;;;;23.29;47.30;102429.63;5018598;28;20634;-81
2022/08/10 09:48:15;;;;;;;2.03;1.93;;;;;;;23.35;46.83;102483.56;5015975;28;20197;-81
2022/08/10 09:50:54;;;;;;;1.70;1.60;;;;;;;23.44;45.94;102481.47;5015284;28;20203;-81
2022/08/10 09:53:34;;;;;;;2.20;1.80;;;;;;;23.52;46.07;102488.22;5024291;28;20228;-81
2022/08/10 09:56:20;;;;;;;3.33;2.13;;;;;;;23.60;44.66;102518.09;5025549;28;20237;-81
2022/08/10 09:58:59;;;;;;;1.80;1.70;;;;;;;23.71;44.35;102565.66;5025664;28;20230;-81
2022/08/10 10:01:37;;;;;;;1.37;1.27;;;;;;;23.77;43.18;102584.13;5027094;28;20230;-81
2022/08/10 10:04:07;;;;;;;1.63;1.40;;;;;;;23.84;44.30;102592.72;5026916;28;20271;-81
2022/08/10 10:06:40;;;;;;;2.77;1.73;;;;;;;23.91;42.57;102596.03;5025995;28;20221;-82
2022/08/10 10:09:15;;;;;;;1.50;1.40;;;;;;;24.02;42.66;102590.25;5026441;28;20777;-81
2022/08/10 10:11:52;;;;;;;3.33;1.50;;;;;;;24.06;42.07;102582.03;5026471;28;20288;-80
2022/08/10 10:14:29;;;;;;;2.27;1.40;;;;;;;24.12;41.19;102635.19;5027062;28;20202;-81
2022/08/10 10:17:09;;;;;;;1.60;1.50;;;;;;;24.21;41.76;102652.59;5027326;28;20738;-83
2022/08/10 10:19:52;;;;;;;2.40;1.77;;;;;;;24.32;44.70;102607.66;5027350;28;20225;-80
2022/08/10 10:22:36;;;;;;;1.80;1.70;;;;;;;24.38;43.57;102548.66;5026642;28;20234;-82
2022/08/10 10:25:07;;;;;;;2.77;1.70;;;;;;;24.45;42.62;102545.72;5023885;28;20263;-82
2022/08/10 10:27:39;;;;;;;2.53;2.07;;;;;;;24.50;43.89;102544.63;5017715;28;20723;-82
2022/08/10 10:30:10;;;;;;;1.90;1.53;;;;;;;24.58;42.45;102536.28;5017922;28;20198;-82
2022/08/10 10:32:47;;;;;;;3.83;2.10;;;;;;;24.65;42.09;102591.13;5018115;28;20228;-82
2022/08/10 10:35:20;;;;;;;2.17;1.90;;;;;;;24.67;41.46;102599.94;5017727;28;20206;-81
2022/08/10 10:37:51;;;;;;;1.57;1.47;;;;;;;24.73;41.92;102593.47;5016893;28;20731;-80
2022/08/10 10:40:18;;;;;;;3.00;2.00;;;;;;;24.78;41.87;102594.16;5017180;28;20218;-80
2022/08/10 10:42:50;;;;;;;2.13;1.93;;;;;;;24.77;41.10;102592.41;5016842;28;20230;-82
2022/08/10 10:45:27;;;;;;;2.80;1.77;;;;;;;24.79;42.47;102606.56;5016724;28;20195;-82
2022/08/10 10:48:03;;;;;;;3.80;2.20;;;;;;;24.85;42.37;102550.16;5018032;28;20261;-81
2022/08/10 10:50:38;;;;;;;2.20;2.00;;;;;;;24.92;41.86;102573.00;5016671;28;20586;-82
2022/08/10 10:53:12;;;;;;;1.70;1.60;;;;;;;25.01;41.40;102577.06;5011533;28;20260;-81
2022/08/10 10:55:48;;;;;;;1.80;1.70;;;;;;;25.08;41.97;102551.78;5017314;28;20207;-81
2022/08/10 10:58:18;;;;;;;1.67;1.57;;;;;;;25.12;41.20;102553.38;5017052;28;20198;-81
2022/08/10 11:00:58;;;;;;;1.90;1.70;;;;;;;25.21;41.57;102577.94;5017374;28;20341;-80
2022/08/10 11:03:38;;;;;;;1.70;1.50;;;;;;;25.28;40.90;102588.31;5015238;28;20223;-80
2022/08/10 11:06:14;;;;;;;1.60;1.50;;;;;;;25.35;40.49;102594.22;5018118;28;20618;-81
2022/08/10 11:08:46;;;;;;;1.70;1.60;;;;;;;25.40;40.42;102607.41;5018348;28;20198;-82
2022/08/10 11:11:17;;;;;;;1.97;1.87;;;;;;;25.50;40.95;102590.84;5020457;28;20213;-82
2022/08/10 11:13:50;;;;;;;5.70;1.90;;;;;;;25.61;39.94;102570.72;5018142;28;20231;-82
2022/08/10 11:16:24;;;;;;;1.77;1.60;;;;;;;25.75;40.85;102603.91;5008651;28;20258;-81
2022/08/10 11:19:03;;;;;;;2.40;1.70;;;;;;;25.89;39.90;102597.03;5016493;28;20249;-81
2022/08/10 11:21:47;;;;;;;5.43;2.10;;;;;;;26.08;38.41;102637.13;5022359;28;20280;-82
2022/08/10 11:24:22;;;;;;;1.70;1.50;;;;;;;26.17;39.89;102650.09;5020680;28;20210;-81
2022/08/10 11:26:53;;;;;;;3.47;1.37;;;;;;;26.29;38.62;102664.66;5019582;28;20203;-81
2022/08/10 11:29:25;;;;;;;1.77;1.67;;;;;;;26.45;37.71;102683.50;5020587;28;20211;-82
2022/08/10 11:32:00;;;;;;;2.03;1.60;;;;;;;26.65;38.62;102699.47;5019578;28;20632;-82
2022/08/10 11:34:34;;;;;;;2.30;2.00;;;;;;;26.80;38.28;102672.81;5020049;28;20703;-82
2022/08/10 11:37:10;;;;;;;1.93;1.80;;;;;;;27.18;37.83;102648.50;5019965;28;20209;-80
2022/08/10 11:39:48;;;;;;;1.90;1.67;;;;;;;28.23;37.09;102687.38;5019332;28;20628;-82
2022/08/10 11:42:29;;;;;;;2.53;2.00;;;;;;;30.26;33.14;102784.38;5019954;28;20230;-82
2022/08/10 11:45:01;;;;;;;2.37;2.00;;;;;;;32.00;30.90;102886.81;5020456;28;20206;-84